sensor_id;sensor_type;location;lat;lon;timestamp;P1;durP1;ratioP1;P2;durP2;ratioP2
11807;SDS011;5961;42.640;23.380;2023-07-13T00:00:29;5.75;;;4.53;;
11807;SDS011;5961;42.640;23.380;2023-07-13T00:02:57;6.80;;;4.28;;
11807;SDS011;5961;42.640;23.380;2023-07-13T00:05:25;8.60;;;4.53;;
11807;SDS011;5961;42.640;23.380;2023-07-13T00:07:52;4.80;;;4.10;;
11807;SDS011;5961;42.640;23.380;2023-07-13T00:10:19;6.05;;;4.25;;
11807;SDS011;5961;42.640;23.380;2023-07-13T00:12:46;7.38;;;4.35;;
11807;SDS011;5961;42.640;23.380;2023-07-13T00:15:14;5.13;;;4.43;;
11807;SDS011;5961;42.640;23.380;2023-07-13T00:17:46;8.82;;;4.25;;
11807;SDS011;5961;42.640;23.380;2023-07-13T00:20:12;5.70;;;4.40;;
11807;SDS011;5961;42.640;23.380;2023-07-13T00:22:40;4.93;;;4.15;;
11807;SDS011;5961;42.640;23.380;2023-07-13T00:25:08;6.60;;;4.55;;
11807;SDS011;5961;42.640;23.380;2023-07-13T00:27:36;5.53;;;3.75;;
11807;SDS011;5961;42.640;23.380;2023-07-13T00:30:02;6.25;;;4.20;;
11807;SDS011;5961;42.640;23.380;2023-07-13T00:32:30;4.78;;;4.30;;
11807;SDS011;5961;42.640;23.380;2023-07-13T00:34:57;5.82;;;4.10;;
11807;SDS011;5961;42.640;23.380;2023-07-13T00:37:25;4.90;;;4.38;;
11807;SDS011;5961;42.640;23.380;2023-07-13T00:39:53;6.63;;;4.82;;
11807;SDS011;5961;42.640;23.380;2023-07-13T00:42:20;5.75;;;4.63;;
11807;SDS011;5961;42.640;23.380;2023-07-13T00:45:06;6.10;;;4.63;;
11807;SDS011;5961;42.640;23.380;2023-07-13T00:47:55;5.25;;;4.78;;
11807;SDS011;5961;42.640;23.380;2023-07-13T00:50:23;7.40;;;4.60;;
11807;SDS011;5961;42.640;23.380;2023-07-13T00:52:51;7.57;;;4.63;;
11807;SDS011;5961;42.640;23.380;2023-07-13T00:55:24;6.07;;;4.65;;
11807;SDS011;5961;42.640;23.380;2023-07-13T00:57:51;5.93;;;4.43;;
11807;SDS011;5961;42.640;23.380;2023-07-13T01:00:17;7.55;;;4.78;;
11807;SDS011;5961;42.640;23.380;2023-07-13T01:02:48;7.00;;;4.60;;
11807;SDS011;5961;42.640;23.380;2023-07-13T01:05:15;4.95;;;4.55;;
11807;SDS011;5961;42.640;23.380;2023-07-13T01:07:44;4.80;;;4.40;;
11807;SDS011;5961;42.640;23.380;2023-07-13T01:10:11;7.57;;;4.97;;
11807;SDS011;5961;42.640;23.380;2023-07-13T01:12:40;7.82;;;4.88;;
11807;SDS011;5961;42.640;23.380;2023-07-13T01:18:02;7.03;;;4.43;;
11807;SDS011;5961;42.640;23.380;2023-07-13T01:20:30;6.18;;;4.85;;
11807;SDS011;5961;42.640;23.380;2023-07-13T01:22:58;6.53;;;4.22;;
11807;SDS011;5961;42.640;23.380;2023-07-13T01:25:24;5.28;;;4.63;;
11807;SDS011;5961;42.640;23.380;2023-07-13T01:27:51;7.28;;;4.50;;
11807;SDS011;5961;42.640;23.380;2023-07-13T01:30:18;5.13;;;4.60;;
11807;SDS011;5961;42.640;23.380;2023-07-13T01:32:45;5.68;;;4.53;;
11807;SDS011;5961;42.640;23.380;2023-07-13T01:35:12;5.55;;;4.45;;
11807;SDS011;5961;42.640;23.380;2023-07-13T01:37:38;8.13;;;4.43;;
11807;SDS011;5961;42.640;23.380;2023-07-13T01:40:07;8.90;;;4.95;;
11807;SDS011;5961;42.640;23.380;2023-07-13T01:42:36;7.13;;;4.80;;
11807;SDS011;5961;42.640;23.380;2023-07-13T01:45:03;5.88;;;4.93;;
11807;SDS011;5961;42.640;23.380;2023-07-13T01:47:30;6.20;;;4.57;;
11807;SDS011;5961;42.640;23.380;2023-07-13T01:49:57;5.50;;;4.68;;
11807;SDS011;5961;42.640;23.380;2023-07-13T01:52:24;4.95;;;4.47;;
11807;SDS011;5961;42.640;23.380;2023-07-13T01:54:51;8.40;;;5.32;;
11807;SDS011;5961;42.640;23.380;2023-07-13T01:57:19;6.75;;;5.50;;
11807;SDS011;5961;42.640;23.380;2023-07-13T01:59:46;7.22;;;5.40;;
11807;SDS011;5961;42.640;23.380;2023-07-13T02:02:12;8.75;;;4.70;;
11807;SDS011;5961;42.640;23.380;2023-07-13T02:04:39;7.43;;;4.88;;
11807;SDS011;5961;42.640;23.380;2023-07-13T02:07:07;9.30;;;5.28;;
11807;SDS011;5961;42.640;23.380;2023-07-13T02:09:34;5.85;;;5.15;;
11807;SDS011;5961;42.640;23.380;2023-07-13T02:12:01;6.90;;;5.07;;
11807;SDS011;5961;42.640;23.380;2023-07-13T02:14:29;6.13;;;5.53;;
11807;SDS011;5961;42.640;23.380;2023-07-13T02:16:56;6.93;;;5.10;;
11807;SDS011;5961;42.640;23.380;2023-07-13T02:19:23;5.68;;;5.10;;
11807;SDS011;5961;42.640;23.380;2023-07-13T02:21:49;7.07;;;5.32;;
11807;SDS011;5961;42.640;23.380;2023-07-13T02:24:16;9.18;;;5.13;;
11807;SDS011;5961;42.640;23.380;2023-07-13T02:26:46;6.28;;;5.20;;
11807;SDS011;5961;42.640;23.380;2023-07-13T02:29:13;5.57;;;5.00;;
11807;SDS011;5961;42.640;23.380;2023-07-13T02:31:41;7.72;;;5.22;;
11807;SDS011;5961;42.640;23.380;2023-07-13T02:34:08;7.77;;;4.97;;
11807;SDS011;5961;42.640;23.380;2023-07-13T02:36:35;6.25;;;4.93;;
11807;SDS011;5961;42.640;23.380;2023-07-13T02:39:02;6.25;;;5.25;;
11807;SDS011;5961;42.640;23.380;2023-07-13T02:41:30;6.75;;;5.80;;
11807;SDS011;5961;42.640;23.380;2023-07-13T02:43:57;6.90;;;5.23;;
11807;SDS011;5961;42.640;23.380;2023-07-13T02:46:28;6.45;;;4.78;;
11807;SDS011;5961;42.640;23.380;2023-07-13T02:48:57;6.70;;;5.17;;
11807;SDS011;5961;42.640;23.380;2023-07-13T02:51:23;5.75;;;5.10;;
11807;SDS011;5961;42.640;23.380;2023-07-13T02:53:50;6.93;;;5.80;;
11807;SDS011;5961;42.640;23.380;2023-07-13T02:56:17;9.48;;;4.93;;
11807;SDS011;5961;42.640;23.380;2023-07-13T02:58:44;9.75;;;5.45;;
11807;SDS011;5961;42.640;23.380;2023-07-13T03:01:11;8.18;;;5.15;;
11807;SDS011;5961;42.640;23.380;2023-07-13T03:03:38;5.55;;;5.03;;
11807;SDS011;5961;42.640;23.380;2023-07-13T03:06:06;6.55;;;5.07;;
11807;SDS011;5961;42.640;23.380;2023-07-13T03:08:33;6.68;;;5.38;;
11807;SDS011;5961;42.640;23.380;2023-07-13T03:11:00;6.90;;;4.70;;
11807;SDS011;5961;42.640;23.380;2023-07-13T03:13:27;6.63;;;5.47;;
11807;SDS011;5961;42.640;23.380;2023-07-13T03:15:54;5.82;;;4.90;;
11807;SDS011;5961;42.640;23.380;2023-07-13T03:18:20;7.82;;;5.40;;
11807;SDS011;5961;42.640;23.380;2023-07-13T03:20:49;5.85;;;5.10;;
11807;SDS011;5961;42.640;23.380;2023-07-13T03:23:18;8.05;;;5.45;;
11807;SDS011;5961;42.640;23.380;2023-07-13T03:25:45;7.32;;;5.50;;
11807;SDS011;5961;42.640;23.380;2023-07-13T03:28:13;10.68;;;5.45;;
11807;SDS011;5961;42.640;23.380;2023-07-13T03:30:41;8.15;;;5.60;;
11807;SDS011;5961;42.640;23.380;2023-07-13T03:33:08;6.57;;;5.95;;
11807;SDS011;5961;42.640;23.380;2023-07-13T03:35:35;6.82;;;5.53;;
11807;SDS011;5961;42.640;23.380;2023-07-13T03:38:01;11.63;;;5.50;;
11807;SDS011;5961;42.640;23.380;2023-07-13T03:40:29;6.20;;;5.60;;
11807;SDS011;5961;42.640;23.380;2023-07-13T03:42:56;7.40;;;6.45;;
11807;SDS011;5961;42.640;23.380;2023-07-13T03:45:23;9.38;;;7.78;;
11807;SDS011;5961;42.640;23.380;2023-07-13T03:47:49;11.25;;;8.88;;
11807;SDS011;5961;42.640;23.380;2023-07-13T03:50:16;7.30;;;6.60;;
11807;SDS011;5961;42.640;23.380;2023-07-13T03:52:43;13.07;;;6.85;;
11807;SDS011;5961;42.640;23.380;2023-07-13T03:55:10;9.82;;;7.07;;
11807;SDS011;5961;42.640;23.380;2023-07-13T03:57:38;8.87;;;6.07;;
11807;SDS011;5961;42.640;23.380;2023-07-13T04:00:05;10.35;;;6.32;;
11807;SDS011;5961;42.640;23.380;2023-07-13T04:02:33;6.90;;;6.22;;
11807;SDS011;5961;42.640;23.380;2023-07-13T04:05:01;8.23;;;5.78;;
11807;SDS011;5961;42.640;23.380;2023-07-13T04:07:27;9.90;;;7.72;;
11807;SDS011;5961;42.640;23.380;2023-07-13T04:09:54;6.60;;;5.90;;
11807;SDS011;5961;42.640;23.380;2023-07-13T04:12:21;12.60;;;8.70;;
11807;SDS011;5961;42.640;23.380;2023-07-13T04:14:49;18.08;;;12.18;;
11807;SDS011;5961;42.640;23.380;2023-07-13T04:17:16;21.65;;;14.43;;
11807;SDS011;5961;42.640;23.380;2023-07-13T04:19:43;11.43;;;7.88;;
11807;SDS011;5961;42.640;23.380;2023-07-13T04:22:09;12.60;;;8.25;;
11807;SDS011;5961;42.640;23.380;2023-07-13T04:24:36;10.55;;;7.45;;
11807;SDS011;5961;42.640;23.380;2023-07-13T04:27:03;11.73;;;6.80;;
11807;SDS011;5961;42.640;23.380;2023-07-13T04:29:31;11.98;;;9.57;;
11807;SDS011;5961;42.640;23.380;2023-07-13T04:31:59;13.65;;;8.63;;
11807;SDS011;5961;42.640;23.380;2023-07-13T04:34:25;13.13;;;8.30;;
11807;SDS011;5961;42.640;23.380;2023-07-13T04:36:52;9.05;;;7.07;;
11807;SDS011;5961;42.640;23.380;2023-07-13T04:39:19;7.93;;;6.30;;
11807;SDS011;5961;42.640;23.380;2023-07-13T04:41:46;9.48;;;7.80;;
11807;SDS011;5961;42.640;23.380;2023-07-13T04:44:12;11.15;;;7.72;;
11807;SDS011;5961;42.640;23.380;2023-07-13T04:46:39;11.35;;;7.28;;
11807;SDS011;5961;42.640;23.380;2023-07-13T04:49:07;10.05;;;7.10;;
11807;SDS011;5961;42.640;23.380;2023-07-13T04:51:33;9.20;;;6.28;;
11807;SDS011;5961;42.640;23.380;2023-07-13T04:54:00;8.40;;;6.43;;
11807;SDS011;5961;42.640;23.380;2023-07-13T04:56:26;9.63;;;6.68;;
11807;SDS011;5961;42.640;23.380;2023-07-13T04:58:53;11.70;;;7.40;;
11807;SDS011;5961;42.640;23.380;2023-07-13T05:01:21;7.38;;;6.38;;
11807;SDS011;5961;42.640;23.380;2023-07-13T05:03:47;8.25;;;6.50;;
11807;SDS011;5961;42.640;23.380;2023-07-13T05:06:15;11.25;;;7.20;;
11807;SDS011;5961;42.640;23.380;2023-07-13T05:08:42;11.52;;;6.80;;
11807;SDS011;5961;42.640;23.380;2023-07-13T05:11:09;9.90;;;6.85;;
11807;SDS011;5961;42.640;23.380;2023-07-13T05:13:35;8.35;;;6.43;;
11807;SDS011;5961;42.640;23.380;2023-07-13T05:16:03;9.18;;;6.72;;
11807;SDS011;5961;42.640;23.380;2023-07-13T05:18:32;13.15;;;7.40;;
11807;SDS011;5961;42.640;23.380;2023-07-13T05:21:00;9.05;;;7.10;;
11807;SDS011;5961;42.640;23.380;2023-07-13T05:23:31;7.97;;;7.10;;
11807;SDS011;5961;42.640;23.380;2023-07-13T05:25:58;12.65;;;7.82;;
11807;SDS011;5961;42.640;23.380;2023-07-13T05:28:26;9.15;;;6.78;;
11807;SDS011;5961;42.640;23.380;2023-07-13T05:30:53;8.00;;;6.63;;
11807;SDS011;5961;42.640;23.380;2023-07-13T05:33:20;8.40;;;6.57;;
11807;SDS011;5961;42.640;23.380;2023-07-13T05:35:47;9.43;;;7.18;;
11807;SDS011;5961;42.640;23.380;2023-07-13T05:38:14;8.73;;;6.78;;
11807;SDS011;5961;42.640;23.380;2023-07-13T05:40:43;11.55;;;7.53;;
11807;SDS011;5961;42.640;23.380;2023-07-13T05:43:10;10.00;;;7.30;;
11807;SDS011;5961;42.640;23.380;2023-07-13T05:45:37;10.27;;;7.68;;
11807;SDS011;5961;42.640;23.380;2023-07-13T05:48:04;12.77;;;7.15;;
11807;SDS011;5961;42.640;23.380;2023-07-13T05:50:31;8.85;;;7.60;;
11807;SDS011;5961;42.640;23.380;2023-07-13T05:52:58;10.75;;;7.20;;
11807;SDS011;5961;42.640;23.380;2023-07-13T05:55:24;12.45;;;8.05;;
11807;SDS011;5961;42.640;23.380;2023-07-13T05:57:52;9.27;;;7.10;;
11807;SDS011;5961;42.640;23.380;2023-07-13T06:00:19;8.85;;;7.38;;
11807;SDS011;5961;42.640;23.380;2023-07-13T06:02:46;12.98;;;7.97;;
11807;SDS011;5961;42.640;23.380;2023-07-13T06:05:13;11.77;;;7.50;;
11807;SDS011;5961;42.640;23.380;2023-07-13T06:07:40;11.15;;;7.88;;
11807;SDS011;5961;42.640;23.380;2023-07-13T06:10:07;10.73;;;8.15;;
11807;SDS011;5961;42.640;23.380;2023-07-13T06:12:34;10.90;;;8.07;;
11807;SDS011;5961;42.640;23.380;2023-07-13T06:15:03;11.25;;;7.93;;
11807;SDS011;5961;42.640;23.380;2023-07-13T06:17:30;8.80;;;7.40;;
11807;SDS011;5961;42.640;23.380;2023-07-13T06:19:57;14.32;;;8.80;;
11807;SDS011;5961;42.640;23.380;2023-07-13T06:22:23;11.80;;;7.93;;
11807;SDS011;5961;42.640;23.380;2023-07-13T06:24:50;14.27;;;8.02;;
11807;SDS011;5961;42.640;23.380;2023-07-13T06:27:18;12.02;;;7.88;;
11807;SDS011;5961;42.640;23.380;2023-07-13T06:29:44;10.05;;;7.53;;
11807;SDS011;5961;42.640;23.380;2023-07-13T06:32:12;11.40;;;7.95;;
11807;SDS011;5961;42.640;23.380;2023-07-13T06:34:39;9.88;;;7.68;;
11807;SDS011;5961;42.640;23.380;2023-07-13T06:37:06;10.20;;;7.93;;
11807;SDS011;5961;42.640;23.380;2023-07-13T06:39:33;12.52;;;8.07;;
11807;SDS011;5961;42.640;23.380;2023-07-13T06:41:59;9.75;;;7.70;;
11807;SDS011;5961;42.640;23.380;2023-07-13T06:44:26;13.05;;;8.07;;
11807;SDS011;5961;42.640;23.380;2023-07-13T06:46:53;10.65;;;7.28;;
11807;SDS011;5961;42.640;23.380;2023-07-13T06:49:21;9.43;;;7.15;;
11807;SDS011;5961;42.640;23.380;2023-07-13T06:51:48;10.52;;;7.68;;
11807;SDS011;5961;42.640;23.380;2023-07-13T06:54:14;9.45;;;7.70;;
11807;SDS011;5961;42.640;23.380;2023-07-13T06:56:41;10.35;;;8.00;;
11807;SDS011;5961;42.640;23.380;2023-07-13T06:59:08;13.40;;;8.10;;
11807;SDS011;5961;42.640;23.380;2023-07-13T07:01:34;12.02;;;7.68;;
11807;SDS011;5961;42.640;23.380;2023-07-13T07:04:01;8.95;;;7.95;;
11807;SDS011;5961;42.640;23.380;2023-07-13T07:06:30;12.52;;;7.43;;
11807;SDS011;5961;42.640;23.380;2023-07-13T07:08:57;11.02;;;7.60;;
11807;SDS011;5961;42.640;23.380;2023-07-13T07:11:24;8.48;;;7.35;;
11807;SDS011;5961;42.640;23.380;2023-07-13T07:13:52;14.38;;;7.88;;
11807;SDS011;5961;42.640;23.380;2023-07-13T07:16:19;12.25;;;8.38;;
11807;SDS011;5961;42.640;23.380;2023-07-13T07:18:46;13.43;;;7.80;;
11807;SDS011;5961;42.640;23.380;2023-07-13T07:21:13;14.73;;;7.88;;
11807;SDS011;5961;42.640;23.380;2023-07-13T07:23:42;11.68;;;8.60;;
11807;SDS011;5961;42.640;23.380;2023-07-13T07:26:09;18.08;;;9.18;;
11807;SDS011;5961;42.640;23.380;2023-07-13T07:28:36;13.10;;;7.97;;
11807;SDS011;5961;42.640;23.380;2023-07-13T07:31:03;12.95;;;8.02;;
11807;SDS011;5961;42.640;23.380;2023-07-13T07:33:30;17.42;;;8.20;;
11807;SDS011;5961;42.640;23.380;2023-07-13T07:35:56;17.25;;;8.38;;
11807;SDS011;5961;42.640;23.380;2023-07-13T07:38:23;18.65;;;8.73;;
11807;SDS011;5961;42.640;23.380;2023-07-13T07:40:52;12.27;;;7.95;;
11807;SDS011;5961;42.640;23.380;2023-07-13T07:43:18;11.20;;;7.85;;
11807;SDS011;5961;42.640;23.380;2023-07-13T07:45:45;14.20;;;8.10;;
11807;SDS011;5961;42.640;23.380;2023-07-13T07:48:12;14.02;;;8.35;;
11807;SDS011;5961;42.640;23.380;2023-07-13T07:50:39;12.50;;;7.95;;
11807;SDS011;5961;42.640;23.380;2023-07-13T07:53:06;13.90;;;8.00;;
11807;SDS011;5961;42.640;23.380;2023-07-13T07:55:35;15.10;;;7.95;;
11807;SDS011;5961;42.640;23.380;2023-07-13T07:58:04;13.35;;;8.68;;
11807;SDS011;5961;42.640;23.380;2023-07-13T08:00:31;12.13;;;8.15;;
11807;SDS011;5961;42.640;23.380;2023-07-13T08:02:58;11.40;;;8.00;;
11807;SDS011;5961;42.640;23.380;2023-07-13T08:05:25;14.85;;;8.35;;
11807;SDS011;5961;42.640;23.380;2023-07-13T08:07:52;14.18;;;8.73;;
11807;SDS011;5961;42.640;23.380;2023-07-13T08:10:19;13.77;;;8.00;;
11807;SDS011;5961;42.640;23.380;2023-07-13T08:12:46;10.85;;;7.88;;
11807;SDS011;5961;42.640;23.380;2023-07-13T08:15:15;13.65;;;8.60;;
11807;SDS011;5961;42.640;23.380;2023-07-13T08:17:43;9.43;;;8.48;;
11807;SDS011;5961;42.640;23.380;2023-07-13T08:20:09;10.63;;;8.50;;
11807;SDS011;5961;42.640;23.380;2023-07-13T08:22:36;15.20;;;8.40;;
11807;SDS011;5961;42.640;23.380;2023-07-13T08:25:03;9.27;;;8.38;;
11807;SDS011;5961;42.640;23.380;2023-07-13T08:27:30;15.40;;;7.93;;
11807;SDS011;5961;42.640;23.380;2023-07-13T08:29:57;12.77;;;8.68;;
11807;SDS011;5961;42.640;23.380;2023-07-13T08:32:26;9.38;;;8.13;;
11807;SDS011;5961;42.640;23.380;2023-07-13T08:34:52;11.10;;;8.50;;
11807;SDS011;5961;42.640;23.380;2023-07-13T08:37:19;13.63;;;8.05;;
11807;SDS011;5961;42.640;23.380;2023-07-13T08:39:46;16.23;;;7.88;;
11807;SDS011;5961;42.640;23.380;2023-07-13T08:42:14;11.10;;;7.82;;
11807;SDS011;5961;42.640;23.380;2023-07-13T08:44:53;11.40;;;8.20;;
11807;SDS011;5961;42.640;23.380;2023-07-13T08:47:28;12.18;;;7.95;;
11807;SDS011;5961;42.640;23.380;2023-07-13T08:49:57;14.60;;;7.88;;
11807;SDS011;5961;42.640;23.380;2023-07-13T08:52:28;11.27;;;8.20;;
11807;SDS011;5961;42.640;23.380;2023-07-13T08:55:00;10.40;;;8.00;;
11807;SDS011;5961;42.640;23.380;2023-07-13T08:57:33;11.25;;;7.90;;
11807;SDS011;5961;42.640;23.380;2023-07-13T09:00:01;11.48;;;8.18;;
11807;SDS011;5961;42.640;23.380;2023-07-13T09:02:35;8.60;;;7.70;;
11807;SDS011;5961;42.640;23.380;2023-07-13T09:05:10;10.10;;;7.85;;
11807;SDS011;5961;42.640;23.380;2023-07-13T09:07:44;13.93;;;8.95;;
11807;SDS011;5961;42.640;23.380;2023-07-13T09:10:26;14.93;;;8.38;;
11807;SDS011;5961;42.640;23.380;2023-07-13T09:12:57;14.30;;;8.13;;
11807;SDS011;5961;42.640;23.380;2023-07-13T09:15:35;10.77;;;8.38;;
11807;SDS011;5961;42.640;23.380;2023-07-13T09:18:08;11.65;;;7.57;;
11807;SDS011;5961;42.640;23.380;2023-07-13T09:20:42;14.32;;;8.93;;
11807;SDS011;5961;42.640;23.380;2023-07-13T09:23:15;15.70;;;9.07;;
11807;SDS011;5961;42.640;23.380;2023-07-13T09:25:45;18.55;;;8.68;;
11807;SDS011;5961;42.640;23.380;2023-07-13T09:28:17;15.77;;;8.80;;
11807;SDS011;5961;42.640;23.380;2023-07-13T09:30:50;11.07;;;7.75;;
11807;SDS011;5961;42.640;23.380;2023-07-13T09:33:21;12.55;;;8.13;;
11807;SDS011;5961;42.640;23.380;2023-07-13T09:35:48;11.35;;;8.23;;
11807;SDS011;5961;42.640;23.380;2023-07-13T09:38:15;11.80;;;8.45;;
11807;SDS011;5961;42.640;23.380;2023-07-13T09:40:46;9.60;;;8.25;;
11807;SDS011;5961;42.640;23.380;2023-07-13T09:43:24;10.30;;;8.55;;
11807;SDS011;5961;42.640;23.380;2023-07-13T09:45:52;16.83;;;8.82;;
11807;SDS011;5961;42.640;23.380;2023-07-13T09:48:21;12.85;;;8.55;;
11807;SDS011;5961;42.640;23.380;2023-07-13T09:50:49;16.40;;;12.82;;
11807;SDS011;5961;42.640;23.380;2023-07-13T09:53:21;16.35;;;8.95;;
11807;SDS011;5961;42.640;23.380;2023-07-13T09:55:49;13.88;;;8.45;;
11807;SDS011;5961;42.640;23.380;2023-07-13T09:58:17;12.68;;;8.40;;
11807;SDS011;5961;42.640;23.380;2023-07-13T10:00:53;11.27;;;8.40;;
11807;SDS011;5961;42.640;23.380;2023-07-13T10:03:26;15.85;;;8.60;;
11807;SDS011;5961;42.640;23.380;2023-07-13T10:05:54;14.18;;;8.27;;
11807;SDS011;5961;42.640;23.380;2023-07-13T10:08:31;11.18;;;8.25;;
11807;SDS011;5961;42.640;23.380;2023-07-13T10:11:08;13.90;;;8.15;;
11807;SDS011;5961;42.640;23.380;2023-07-13T10:13:36;12.75;;;8.55;;
11807;SDS011;5961;42.640;23.380;2023-07-13T10:16:08;12.70;;;9.18;;
11807;SDS011;5961;42.640;23.380;2023-07-13T10:18:39;16.05;;;9.25;;
11807;SDS011;5961;42.640;23.380;2023-07-13T10:21:13;13.82;;;9.32;;
11807;SDS011;5961;42.640;23.380;2023-07-13T10:23:43;10.55;;;8.48;;
11807;SDS011;5961;42.640;23.380;2023-07-13T10:26:15;13.63;;;8.60;;
11807;SDS011;5961;42.640;23.380;2023-07-13T10:28:46;16.50;;;9.15;;
11807;SDS011;5961;42.640;23.380;2023-07-13T10:31:18;15.20;;;8.93;;
11807;SDS011;5961;42.640;23.380;2023-07-13T10:33:47;11.60;;;8.13;;
11807;SDS011;5961;42.640;23.380;2023-07-13T10:36:17;13.60;;;8.98;;
11807;SDS011;5961;42.640;23.380;2023-07-13T10:38:55;11.05;;;8.70;;
11807;SDS011;5961;42.640;23.380;2023-07-13T10:41:26;18.70;;;8.40;;
11807;SDS011;5961;42.640;23.380;2023-07-13T10:43:54;17.95;;;8.05;;
11807;SDS011;5961;42.640;23.380;2023-07-13T10:46:24;10.75;;;8.30;;
11807;SDS011;5961;42.640;23.380;2023-07-13T10:48:55;16.90;;;8.52;;
11807;SDS011;5961;42.640;23.380;2023-07-13T10:51:25;15.32;;;8.30;;
11807;SDS011;5961;42.640;23.380;2023-07-13T10:54:15;14.15;;;8.43;;
11807;SDS011;5961;42.640;23.380;2023-07-13T10:56:49;10.77;;;7.80;;
11807;SDS011;5961;42.640;23.380;2023-07-13T10:59:18;14.27;;;7.93;;
11807;SDS011;5961;42.640;23.380;2023-07-13T11:01:55;11.18;;;8.00;;
11807;SDS011;5961;42.640;23.380;2023-07-13T11:04:25;10.85;;;7.95;;
11807;SDS011;5961;42.640;23.380;2023-07-13T11:06:56;15.35;;;8.70;;
11807;SDS011;5961;42.640;23.380;2023-07-13T11:09:31;13.50;;;7.85;;
11807;SDS011;5961;42.640;23.380;2023-07-13T11:12:02;18.08;;;7.95;;
11807;SDS011;5961;42.640;23.380;2023-07-13T11:14:35;13.15;;;8.48;;
11807;SDS011;5961;42.640;23.380;2023-07-13T11:20:21;11.55;;;8.00;;
11807;SDS011;5961;42.640;23.380;2023-07-13T11:23:07;13.55;;;8.70;;
11807;SDS011;5961;42.640;23.380;2023-07-13T11:25:42;12.88;;;8.32;;
11807;SDS011;5961;42.640;23.380;2023-07-13T11:28:16;12.88;;;9.05;;
11807;SDS011;5961;42.640;23.380;2023-07-13T11:30:48;13.25;;;8.00;;
11807;SDS011;5961;42.640;23.380;2023-07-13T11:33:17;12.55;;;8.55;;
11807;SDS011;5961;42.640;23.380;2023-07-13T11:35:49;11.30;;;7.75;;
11807;SDS011;5961;42.640;23.380;2023-07-13T11:38:21;16.85;;;8.40;;
11807;SDS011;5961;42.640;23.380;2023-07-13T11:40:51;13.20;;;8.52;;
11807;SDS011;5961;42.640;23.380;2023-07-13T11:43:20;10.27;;;8.32;;
11807;SDS011;5961;42.640;23.380;2023-07-13T11:45:48;12.23;;;8.30;;
11807;SDS011;5961;42.640;23.380;2023-07-13T11:48:19;13.02;;;7.68;;
11807;SDS011;5961;42.640;23.380;2023-07-13T11:53:44;12.90;;;8.00;;
11807;SDS011;5961;42.640;23.380;2023-07-13T11:56:12;11.88;;;8.50;;
11807;SDS011;5961;42.640;23.380;2023-07-13T11:58:39;14.00;;;8.10;;
11807;SDS011;5961;42.640;23.380;2023-07-13T12:01:10;12.98;;;7.88;;
11807;SDS011;5961;42.640;23.380;2023-07-13T12:03:44;13.57;;;8.02;;
11807;SDS011;5961;42.640;23.380;2023-07-13T12:06:21;15.07;;;7.28;;
11807;SDS011;5961;42.640;23.380;2023-07-13T12:08:55;15.60;;;8.25;;
11807;SDS011;5961;42.640;23.380;2023-07-13T12:11:23;12.15;;;6.93;;
11807;SDS011;5961;42.640;23.380;2023-07-13T12:13:49;12.98;;;7.45;;
11807;SDS011;5961;42.640;23.380;2023-07-13T12:16:17;14.23;;;6.95;;
11807;SDS011;5961;42.640;23.380;2023-07-13T12:18:52;12.10;;;7.70;;
11807;SDS011;5961;42.640;23.380;2023-07-13T12:21:22;11.93;;;6.75;;
11807;SDS011;5961;42.640;23.380;2023-07-13T12:23:55;12.00;;;7.82;;
11807;SDS011;5961;42.640;23.380;2023-07-13T12:26:21;13.00;;;7.22;;
11807;SDS011;5961;42.640;23.380;2023-07-13T12:28:49;14.13;;;6.70;;
11807;SDS011;5961;42.640;23.380;2023-07-13T12:31:25;11.52;;;7.10;;
11807;SDS011;5961;42.640;23.380;2023-07-13T12:33:58;10.25;;;6.97;;
11807;SDS011;5961;42.640;23.380;2023-07-13T12:36:28;13.27;;;7.55;;
11807;SDS011;5961;42.640;23.380;2023-07-13T12:38:58;13.43;;;7.07;;
11807;SDS011;5961;42.640;23.380;2023-07-13T12:41:30;11.05;;;7.57;;
11807;SDS011;5961;42.640;23.380;2023-07-13T12:43:57;13.48;;;7.70;;
11807;SDS011;5961;42.640;23.380;2023-07-13T12:46:26;10.73;;;7.45;;
11807;SDS011;5961;42.640;23.380;2023-07-13T12:48:54;10.60;;;7.40;;
11807;SDS011;5961;42.640;23.380;2023-07-13T12:51:21;12.75;;;7.70;;
11807;SDS011;5961;42.640;23.380;2023-07-13T12:53:51;11.65;;;7.68;;
11807;SDS011;5961;42.640;23.380;2023-07-13T12:56:26;13.27;;;7.18;;
11807;SDS011;5961;42.640;23.380;2023-07-13T12:58:57;11.90;;;7.07;;
11807;SDS011;5961;42.640;23.380;2023-07-13T13:01:27;10.20;;;6.57;;
11807;SDS011;5961;42.640;23.380;2023-07-13T13:03:55;9.80;;;7.07;;
11807;SDS011;5961;42.640;23.380;2023-07-13T13:06:23;11.85;;;7.47;;
11807;SDS011;5961;42.640;23.380;2023-07-13T13:08:53;10.68;;;7.07;;
11807;SDS011;5961;42.640;23.380;2023-07-13T13:11:21;14.68;;;6.85;;
11807;SDS011;5961;42.640;23.380;2023-07-13T13:13:49;11.13;;;7.18;;
11807;SDS011;5961;42.640;23.380;2023-07-13T13:16:19;10.65;;;6.68;;
11807;SDS011;5961;42.640;23.380;2023-07-13T13:18:47;10.77;;;7.13;;
11807;SDS011;5961;42.640;23.380;2023-07-13T13:21:15;10.70;;;6.88;;
11807;SDS011;5961;42.640;23.380;2023-07-13T13:23:42;13.48;;;6.72;;
11807;SDS011;5961;42.640;23.380;2023-07-13T13:26:11;14.60;;;7.07;;
11807;SDS011;5961;42.640;23.380;2023-07-13T13:28:39;11.48;;;6.60;;
11807;SDS011;5961;42.640;23.380;2023-07-13T13:31:07;13.63;;;6.78;;
11807;SDS011;5961;42.640;23.380;2023-07-13T13:33:38;10.18;;;6.25;;
11807;SDS011;5961;42.640;23.380;2023-07-13T13:36:09;10.95;;;6.93;;
11807;SDS011;5961;42.640;23.380;2023-07-13T13:38:40;12.23;;;7.40;;
11807;SDS011;5961;42.640;23.380;2023-07-13T13:41:07;13.30;;;7.03;;
11807;SDS011;5961;42.640;23.380;2023-07-13T13:43:37;16.60;;;6.72;;
11807;SDS011;5961;42.640;23.380;2023-07-13T13:46:05;10.80;;;6.30;;
11807;SDS011;5961;42.640;23.380;2023-07-13T13:48:40;9.60;;;6.47;;
11807;SDS011;5961;42.640;23.380;2023-07-13T13:51:12;8.98;;;6.43;;
11807;SDS011;5961;42.640;23.380;2023-07-13T13:53:42;9.85;;;6.70;;
11807;SDS011;5961;42.640;23.380;2023-07-13T13:56:09;13.90;;;7.00;;
11807;SDS011;5961;42.640;23.380;2023-07-13T13:58:36;12.32;;;7.05;;
11807;SDS011;5961;42.640;23.380;2023-07-13T14:01:04;13.30;;;7.13;;
11807;SDS011;5961;42.640;23.380;2023-07-13T14:03:33;10.20;;;6.55;;
11807;SDS011;5961;42.640;23.380;2023-07-13T14:06:00;10.20;;;6.88;;
11807;SDS011;5961;42.640;23.380;2023-07-13T14:08:27;14.80;;;6.72;;
11807;SDS011;5961;42.640;23.380;2023-07-13T14:10:54;11.63;;;6.88;;
11807;SDS011;5961;42.640;23.380;2023-07-13T14:13:25;8.57;;;6.90;;
11807;SDS011;5961;42.640;23.380;2023-07-13T14:15:55;10.27;;;7.05;;
11807;SDS011;5961;42.640;23.380;2023-07-13T14:18:22;13.70;;;6.88;;
11807;SDS011;5961;42.640;23.380;2023-07-13T14:20:49;13.05;;;6.35;;
11807;SDS011;5961;42.640;23.380;2023-07-13T14:23:17;13.57;;;7.30;;
11807;SDS011;5961;42.640;23.380;2023-07-13T14:25:44;12.60;;;7.05;;
11807;SDS011;5961;42.640;23.380;2023-07-13T14:28:16;8.90;;;6.50;;
11807;SDS011;5961;42.640;23.380;2023-07-13T14:30:46;10.45;;;7.05;;
11807;SDS011;5961;42.640;23.380;2023-07-13T14:33:14;12.40;;;7.05;;
11807;SDS011;5961;42.640;23.380;2023-07-13T14:35:41;9.55;;;6.65;;
11807;SDS011;5961;42.640;23.380;2023-07-13T14:38:09;12.18;;;6.80;;
11807;SDS011;5961;42.640;23.380;2023-07-13T14:40:37;12.30;;;6.45;;
11807;SDS011;5961;42.640;23.380;2023-07-13T14:43:04;10.88;;;6.57;;
11807;SDS011;5961;42.640;23.380;2023-07-13T14:45:33;11.43;;;7.85;;
11807;SDS011;5961;42.640;23.380;2023-07-13T14:47:59;9.30;;;6.88;;
11807;SDS011;5961;42.640;23.380;2023-07-13T14:50:30;11.98;;;7.13;;
11807;SDS011;5961;42.640;23.380;2023-07-13T14:53:00;12.18;;;7.30;;
11807;SDS011;5961;42.640;23.380;2023-07-13T14:55:26;13.27;;;7.53;;